Time;durP1;ratioP1;P1;durP2;ratioP2;P2;SDS_P1;SDS_P2;PMS_P1;PMS_P2;Temp;Humidity;BMP_temperature;BMP_pressure;BME280_temperature;BME280_humidity;BME280_pressure;Samples;Min_cycle;Max_cycle;Signal;HPM_P1;HPM_P2
2022/06/18 00:09:13;;;;;;;4.53;1.88;;;;;;;18.57;85.32;100852.50;20817977;28;20049;-71
2022/06/18 00:19:15;;;;;;;3.88;1.73;;;;;;;18.44;86.22;100845.97;20818501;28;20050;-71
2022/06/18 00:29:18;;;;;;;4.28;1.92;;;;;;;18.40;86.81;100849.69;20818395;28;20111;-72
2022/06/18 00:39:19;;;;;;;3.70;1.73;;;;;;;18.34;86.66;100849.91;20817765;28;20120;-73
2022/06/18 00:49:47;;;;;;;3.08;1.60;;;;;;;18.19;87.21;100857.56;20816867;28;20061;-70
2022/06/18 00:59:54;;;;;;;3.20;2.00;;;;;;;18.18;88.09;100858.50;20816019;28;20049;-70
2022/06/18 01:09:58;;;;;;;4.47;2.00;;;;;;;18.07;88.49;100847.47;20816079;28;20480;-72
2022/06/18 01:20:04;;;;;;;4.22;1.80;;;;;;;17.95;89.58;100832.03;20816533;28;20068;-70
2022/06/18 01:30:08;;;;;;;3.75;2.40;;;;;;;17.75;90.66;100822.22;20815153;28;20442;-70
2022/06/18 01:40:12;;;;;;;4.77;2.40;;;;;;;17.74;91.25;100817.00;20821098;28;20486;-70
2022/06/18 01:50:21;;;;;;;4.90;1.93;;;;;;;17.69;90.11;100818.00;20828553;28;20076;-72
2022/06/18 02:00:26;;;;;;;4.03;2.10;;;;;;;17.48;91.26;100802.91;20828157;28;20045;-69
2022/06/18 02:10:35;;;;;;;3.90;1.90;;;;;;;17.41;91.61;100799.66;20828369;28;20099;-71
2022/06/18 02:20:43;;;;;;;3.63;1.83;;;;;;;17.09;90.43;100782.31;20826799;28;20453;-71
2022/06/18 02:30:45;;;;;;;5.30;2.60;;;;;;;16.61;93.33;100790.16;20825760;28;20124;-71
2022/06/18 02:40:46;;;;;;;6.57;2.55;;;;;;;16.76;93.02;100787.03;20826038;28;20123;-72
2022/06/18 02:50:48;;;;;;;5.55;2.70;;;;;;;16.85;92.50;100793.78;20826127;28;20049;-70
2022/06/18 03:00:58;;;;;;;6.85;3.22;;;;;;;16.74;92.96;100801.22;20823601;28;20045;-71
2022/06/18 03:21:38;;;;;;;5.15;2.78;;;;;;;16.78;93.40;100792.28;20821725;28;20072;-70
2022/06/18 03:31:40;;;;;;;4.60;2.67;;;;;;;16.76;94.40;100794.09;20820437;28;20049;-71
2022/06/18 03:41:42;;;;;;;8.07;2.80;;;;;;;16.77;94.86;100809.03;20818887;28;20646;-71
2022/06/18 03:51:43;;;;;;;5.32;2.53;;;;;;;16.88;94.56;100805.13;20819933;28;20099;-69
2022/06/18 04:01:45;;;;;;;5.20;2.80;;;;;;;17.10;93.02;100821.09;20817648;28;20057;-72
2022/06/18 04:11:46;;;;;;;4.72;2.50;;;;;;;17.35;92.93;100814.91;20818170;28;20041;-71
2022/06/18 04:21:48;;;;;;;5.93;2.53;;;;;;;17.55;91.78;100812.38;20817547;28;20057;-70
2022/06/18 04:31:49;;;;;;;4.50;2.67;;;;;;;18.08;90.00;100811.22;20817756;28;20450;-70
2022/06/18 04:41:51;;;;;;;6.25;3.10;;;;;;;18.91;86.45;100819.25;20817371;28;20084;-73
2022/06/18 04:51:52;;;;;;;4.53;2.65;;;;;;;19.72;85.53;100803.19;20818046;28;20045;-70
2022/06/18 05:01:59;;;;;;;5.90;3.40;;;;;;;19.99;90.83;100808.13;20813766;28;20045;-71
2022/06/18 05:12:01;;;;;;;5.13;3.33;;;;;;;20.19;93.18;100800.03;20817499;28;20433;-70
2022/06/18 05:22:02;;;;;;;7.45;3.40;;;;;;;20.42;92.69;100798.03;20831043;28;20080;-69
2022/06/18 05:32:04;;;;;;;6.28;3.65;;;;;;;20.62;90.55;100789.09;20830814;28;20053;-70
2022/06/18 05:42:06;;;;;;;6.38;3.55;;;;;;;20.87;90.81;100788.66;20827841;28;20445;-70
2022/06/18 05:52:08;;;;;;;6.50;3.47;;;;;;;21.03;90.26;100762.94;20793835;28;20046;-70
2022/06/18 06:02:11;;;;;;;7.40;3.50;;;;;;;21.31;86.06;100764.16;20804846;28;20572;-71
2022/06/18 06:12:13;;;;;;;7.30;3.23;;;;;;;21.59;84.69;100761.69;20788572;28;20052;-70
2022/06/18 06:22:15;;;;;;;5.70;3.47;;;;;;;;;;20780763;28;20085;-70
2022/06/18 06:32:17;;;;;;;6.75;3.38;;;;;;;22.19;82.55;100750.34;20744123;28;20052;-72
2022/06/18 06:42:18;;;;;;;7.22;3.33;;;;;;;22.44;80.22;100752.41;20742637;28;20151;-71
2022/06/18 06:52:20;;;;;;;8.38;3.85;;;;;;;22.73;77.68;100740.84;20743572;28;20046;-71
2022/06/18 07:02:21;;;;;;;7.13;3.13;;;;;;;23.10;74.14;100743.09;20745228;28;20099;-72
2022/06/18 07:12:23;;;;;;;6.45;3.42;;;;;;;23.52;72.45;100735.03;20771647;28;20103;-71
2022/06/18 07:22:25;;;;;;;7.88;3.47;;;;;;;23.96;71.32;100738.47;20817868;28;20084;-70
2022/06/18 07:32:27;;;;;;;5.97;3.40;;;;;;;24.27;70.41;100742.59;20813663;28;20568;-71
2022/06/18 07:42:28;;;;;;;5.90;3.08;;;;;;;24.54;71.72;100723.84;20752881;28;20561;-72
2022/06/18 07:52:30;;;;;;;5.15;2.97;;;;;;;24.83;70.56;100713.78;20730211;28;20076;-70
2022/06/18 08:02:36;;;;;;;9.52;3.30;;;;;;;25.14;66.68;100707.13;20730294;28;20049;-70
2022/06/18 08:12:38;;;;;;;8.63;3.55;;;;;;;25.45;70.42;100694.22;20756341;28;20087;-70
2022/06/18 08:22:44;;;;;;;5.97;3.72;;;;;;;25.97;64.79;100685.84;20802661;28;20057;-70
2022/06/18 08:32:45;;;;;;;9.77;4.68;;;;;;;26.06;63.07;100678.91;20808673;28;20460;-71
2022/06/18 08:43:17;;;;;;;8.50;4.22;;;;;;;26.28;62.74;100668.25;20808559;28;20210;-70
2022/06/18 08:53:40;;;;;;;5.38;3.00;;;;;;;27.08;59.65;100657.50;20792375;28;20048;-70
2022/06/18 09:04:08;;;;;;;4.60;3.37;;;;;;;27.67;54.63;100648.19;20822588;28;20053;-71
2022/06/18 09:14:39;;;;;;;5.78;2.97;;;;;;;28.16;50.66;100635.13;20823209;28;20091;-71
2022/06/18 09:24:44;;;;;;;5.47;2.80;;;;;;;28.76;48.03;100622.72;20818212;28;20045;-70
2022/06/18 09:34:51;;;;;;;4.82;2.65;;;;;;;29.10;46.11;100613.38;20820406;28;20053;-70
2022/06/18 09:45:07;;;;;;;5.85;2.50;;;;;;;29.39;41.19;100613.41;20821490;28;20049;-72
2022/06/18 09:55:23;;;;;;;4.47;2.28;;;;;;;29.79;36.20;100590.00;20820446;28;20865;-70
2022/06/18 10:15:59;;;;;;;5.22;1.83;;;;;;;30.58;34.08;100568.94;20818743;28;20065;-70
2022/06/18 10:26:19;;;;;;;4.15;1.80;;;;;;;30.85;31.56;100543.75;20818190;28;20041;-71
2022/06/18 10:36:39;;;;;;;2.85;1.15;;;;;;;31.09;27.32;100528.81;20782845;28;20136;-71
2022/06/18 10:46:41;;;;;;;2.55;1.17;;;;;;;31.35;25.48;100523.53;20768451;28;20111;-72
2022/06/18 10:56:52;;;;;;;4.03;1.30;;;;;;;31.21;25.53;100511.34;20772680;28;20045;-70
2022/06/18 11:06:57;;;;;;;3.50;1.67;;;;;;;31.23;28.95;100509.34;20740245;28;20046;-70
2022/06/18 11:16:58;;;;;;;4.72;1.40;;;;;;;31.62;24.96;100493.66;20792401;28;20076;-70
2022/06/18 11:27:04;;;;;;;4.97;1.50;;;;;;;31.97;23.70;100475.63;20771244;28;20073;-70
2022/06/18 11:37:32;;;;;;;3.33;1.33;;;;;;;32.15;25.71;100462.00;20731030;28;20065;-70
2022/06/18 11:47:41;;;;;;;4.85;1.70;;;;;;;32.42;24.18;100436.56;20734025;28;20053;-70
2022/06/18 11:58:03;;;;;;;5.75;1.70;;;;;;;32.49;25.65;100423.22;20733326;28;20053;-70
2022/06/18 12:08:05;;;;;;;4.95;1.80;;;;;;;32.87;25.28;100402.75;20766828;28;20468;-69
2022/06/18 12:18:18;;;;;;;7.13;2.00;;;;;;;32.68;26.04;100395.78;20740110;28;20049;-69
2022/06/18 12:28:32;;;;;;;5.70;1.90;;;;;;;32.94;25.13;100382.94;20727469;28;20454;-69
2022/06/18 12:39:21;;;;;;;7.25;2.53;;;;;;;32.91;24.67;100358.88;20726765;28;20058;-69
2022/06/18 12:49:36;;;;;;;9.15;2.22;;;;;;;33.16;24.08;100348.03;20727363;28;20142;-69
2022/06/18 12:59:49;;;;;;;7.57;2.42;;;;;;;33.28;24.40;100330.34;20726945;28;20057;-69
2022/06/18 13:10:12;;;;;;;6.00;2.03;;;;;;;33.53;23.96;100323.00;20729279;28;20141;-69
2022/06/18 13:20:17;;;;;;;;;;;;;;;33.50;23.88;100298.09;20808417;28;20073;-69
2022/06/18 13:30:35;;;;;;;6.78;1.88;;;;;;;33.53;25.28;100286.88;20808072;28;19974;-69
2022/06/18 13:40:47;;;;;;;4.03;1.80;;;;;;;33.79;26.21;100270.31;20820100;28;20666;-68
2022/06/18 13:50:51;;;;;;;5.43;2.60;;;;;;;33.83;26.55;100253.47;20783734;28;20045;-67
2022/06/18 14:01:13;;;;;;;7.40;2.50;;;;;;;34.07;24.79;100233.47;20777111;28;20108;-68
2022/06/18 14:11:34;;;;;;;5.88;2.13;;;;;;;34.11;26.55;100214.91;20775110;28;20073;-68
2022/06/18 14:21:36;;;;;;;7.72;2.15;;;;;;;34.01;25.77;100198.03;20763383;28;20058;-67
2022/06/18 14:31:56;;;;;;;8.82;2.47;;;;;;;34.11;26.54;100190.47;20735375;28;20050;-68
2022/06/18 14:42:05;;;;;;;7.55;2.20;;;;;;;34.27;25.76;100174.03;20759074;28;20068;-67
2022/06/18 14:52:34;;;;;;;8.35;2.38;;;;;;;34.38;25.39;100153.72;20771351;28;20037;-68
2022/06/18 15:02:52;;;;;;;11.77;2.50;;;;;;;34.67;24.97;100137.47;20736828;28;20049;-68
2022/06/18 15:12:54;;;;;;;12.15;2.53;;;;;;;34.60;24.07;100124.81;20763656;28;20087;-68
2022/06/18 15:23:00;;;;;;;8.93;2.65;;;;;;;34.57;23.97;100106.16;20813317;28;20154;-68
2022/06/18 15:33:19;;;;;;;8.57;2.13;;;;;;;34.85;24.70;100088.13;20812146;28;20049;-69
2022/06/18 15:43:32;;;;;;;7.72;2.10;;;;;;;35.02;23.23;100066.16;20813050;28;20111;-69
2022/06/18 15:53:46;;;;;;;10.32;2.38;;;;;;;35.13;23.90;100060.25;20788694;28;20048;-69
2022/06/18 16:03:50;;;;;;;9.07;2.58;;;;;;;35.16;23.13;100046.25;20730427;28;20054;-70
2022/06/18 16:13:55;;;;;;;12.27;2.58;;;;;;;35.28;23.63;100036.56;20765478;28;20111;-70
2022/06/18 16:23:58;;;;;;;15.23;3.00;;;;;;;35.27;23.60;100017.69;20808070;28;20669;-70
2022/06/18 16:33:59;;;;;;;9.88;2.85;;;;;;;35.18;22.60;100004.19;20808479;28;20033;-70
2022/06/18 16:44:00;;;;;;;9.82;2.50;;;;;;;35.12;24.22;99994.09;20809594;28;20049;-70
2022/06/18 16:54:03;;;;;;;;;;;;;;;35.01;24.93;99980.16;20809964;28;20046;-71
2022/06/18 17:04:05;;;;;;;9.35;2.92;;;;;;;34.79;25.73;99955.63;20807892;28;19921;-70
2022/06/18 17:14:08;;;;;;;13.88;3.45;;;;;;;34.80;25.81;99957.28;20782534;28;20518;-70
2022/06/18 17:34:32;;;;;;;10.52;3.10;;;;;;;34.44;29.68;99930.03;20741241;28;20066;-71
2022/06/18 17:44:33;;;;;;;12.88;3.30;;;;;;;34.21;30.75;99919.31;20739989;28;20054;-70
2022/06/18 17:54:36;;;;;;;12.40;2.97;;;;;;;33.68;33.15;99908.53;20739047;28;20081;-70
2022/06/18 18:04:38;;;;;;;19.65;3.78;;;;;;;33.28;35.36;99912.41;20738630;28;20293;-70
2022/06/18 18:14:42;;;;;;;19.63;3.50;;;;;;;33.01;35.98;99902.13;20781293;28;20054;-70
2022/06/18 18:24:43;;;;;;;15.32;2.90;;;;;;;32.61;37.91;99904.06;20816297;28;20238;-71
2022/06/18 18:34:45;;;;;;;13.50;3.77;;;;;;;32.21;39.07;99892.41;20817140;28;20061;-69
2022/06/18 18:44:46;;;;;;;19.40;4.30;;;;;;;31.85;40.03;99892.88;20817416;28;20042;-70
2022/06/18 18:54:49;;;;;;;16.07;3.77;;;;;;;31.44;41.48;99880.44;20817012;28;20041;-69
2022/06/18 19:04:50;;;;;;;23.92;5.07;;;;;;;30.89;43.02;99879.22;20815696;28;20409;-70
2022/06/18 19:14:53;;;;;;;22.13;5.80;;;;;;;30.59;42.63;99886.06;20770175;28;20049;-70
2022/06/18 19:24:55;;;;;;;16.42;3.83;;;;;;;30.27;41.60;99876.84;20730385;28;20522;-68
2022/06/18 19:34:57;;;;;;;16.60;3.95;;;;;;;29.91;41.90;99873.50;20730221;28;20038;-68
2022/06/18 19:44:58;;;;;;;15.55;3.97;;;;;;;29.58;42.13;99877.88;20732134;28;20077;-68
2022/06/18 19:55:00;;;;;;;16.77;4.13;;;;;;;29.25;41.42;99883.00;20731677;28;20050;-68
2022/06/18 20:05:02;;;;;;;17.95;4.30;;;;;;;29.03;41.35;99881.63;20731209;28;20042;-71
2022/06/18 20:15:05;;;;;;;21.13;4.60;;;;;;;28.77;41.91;99876.16;20776501;28;20045;-69
2022/06/18 20:25:08;;;;;;;17.00;4.43;;;;;;;28.64;46.59;99867.59;20809071;28;20505;-69
2022/06/18 20:35:24;;;;;;;18.37;4.07;;;;;;;28.00;53.13;99872.06;20810181;28;20525;-68
2022/06/18 20:45:25;;;;;;;19.63;4.03;;;;;;;27.56;53.25;99849.41;20817185;28;20051;-68
2022/06/18 21:05:47;;;;;;;16.90;4.03;;;;;;;26.77;54.41;99839.75;20825826;28;20042;-68
2022/06/18 21:15:49;;;;;;;22.10;4.32;;;;;;;26.49;56.50;99821.78;20770519;28;20065;-68
2022/06/18 21:25:51;;;;;;;24.38;5.43;;;;;;;26.35;52.69;99801.56;20742513;28;20061;-68
2022/06/18 21:46:14;;;;;;;15.30;3.70;;;;;;;26.21;52.07;99765.22;20740167;28;20046;-66
2022/06/18 21:56:18;;;;;;;28.30;5.17;;;;;;;26.38;46.91;99760.16;20737824;28;20473;-67
2022/06/18 22:06:19;;;;;;;19.25;4.15;;;;;;;26.30;45.46;99747.41;20781117;28;20046;-67
2022/06/18 22:26:41;;;;;;;14.60;4.63;;;;;;;25.61;55.23;99782.25;20825262;28;20077;-66
2022/06/18 22:36:47;;;;;;;19.02;4.80;;;;;;;25.07;60.13;99786.94;20825696;28;20413;-68
2022/06/18 22:46:51;;;;;;;18.88;3.67;;;;;;;24.74;62.12;99767.38;20824824;28;20494;-68
2022/06/18 22:56:53;;;;;;;15.82;4.97;;;;;;;24.71;61.68;99764.09;20823395;28;20469;-68
2022/06/18 23:06:56;;;;;;;17.55;4.68;;;;;;;24.60;62.08;99754.31;20822891;28;20080;-68
2022/06/18 23:17:01;;;;;;;18.43;4.73;;;;;;;24.30;63.36;99747.00;20822308;28;20065;-67
2022/06/18 23:27:03;;;;;;;21.27;5.18;;;;;;;24.18;63.19;99756.88;20820564;28;20099;-68
2022/06/18 23:37:07;;;;;;;17.25;4.72;;;;;;;24.18;63.77;99759.56;20820866;28;20057;-68
2022/06/18 23:47:09;;;;;;;26.13;5.40;;;;;;;24.02;64.43;99748.44;20820789;28;20045;-68
2022/06/18 23:57:16;;;;;;;23.67;4.72;;;;;;;23.70;65.35;99746.53;20819399;28;20149;-67
